createdAt,value
2019-02-26T00:02:26.165Z,14.90
2019-02-26T00:04:56.484Z,16.48
2019-02-26T00:07:28.208Z,14.85
2019-02-26T00:09:59.614Z,12.73
2019-02-26T00:12:31.039Z,15.13
2019-02-26T00:15:02.588Z,14.70
2019-02-26T00:17:36.234Z,12.90
2019-02-26T00:20:05.620Z,13.30
2019-02-26T00:22:36.724Z,13.28
2019-02-26T00:25:08.508Z,14.33
2019-02-26T00:27:38.276Z,13.50
2019-02-26T00:30:11.261Z,11.68
2019-02-26T00:32:41.097Z,16.23
2019-02-26T00:35:10.693Z,13.08
2019-02-26T00:37:40.509Z,12.68
2019-02-26T00:40:12.171Z,13.25
2019-02-26T00:42:41.827Z,14.15
2019-02-26T00:45:11.572Z,14.43
2019-02-26T00:47:43.340Z,15.05
2019-02-26T00:50:14.219Z,12.65
2019-02-26T00:52:44.327Z,13.45
2019-02-26T00:55:14.059Z,13.38
2019-02-26T00:57:43.635Z,12.20
2019-02-26T01:00:14.408Z,11.83
2019-02-26T01:02:44.069Z,13.55
2019-02-26T01:05:15.745Z,12.25
2019-02-26T01:07:47.338Z,11.10
2019-02-26T01:10:19.306Z,12.33
2019-02-26T01:12:48.525Z,11.57
2019-02-26T01:15:18.269Z,11.68
2019-02-26T01:17:47.907Z,9.93
2019-02-26T01:20:19.629Z,12.90
2019-02-26T01:22:49.159Z,12.05
2019-02-26T01:25:22.336Z,13.70
2019-02-26T01:27:51.089Z,10.80
2019-02-26T01:30:25.851Z,10.80
2019-02-26T01:32:53.204Z,13.13
2019-02-26T01:35:23.969Z,10.80
2019-02-26T01:37:55.685Z,11.15
2019-02-26T01:40:25.814Z,10.78
2019-02-26T01:42:57.925Z,11.15
2019-02-26T01:45:28.108Z,11.83
2019-02-26T01:47:58.409Z,11.05
2019-02-26T01:50:28.832Z,13.43
2019-02-26T01:53:01.060Z,11.83
2019-02-26T01:55:30.948Z,10.25
2019-02-26T01:58:00.641Z,11.00
2019-02-26T02:00:30.451Z,11.80
2019-02-26T02:03:00.158Z,10.63
2019-02-26T02:05:31.401Z,10.23
2019-02-26T02:08:01.319Z,12.60
2019-02-26T02:10:31.077Z,10.53
2019-02-26T02:13:02.869Z,10.32
2019-02-26T02:15:32.318Z,9.25
2019-02-26T02:18:04.004Z,11.73
2019-02-26T02:20:33.396Z,10.78
2019-02-26T02:23:04.702Z,11.00
2019-02-26T02:25:36.126Z,11.08
2019-02-26T02:28:05.872Z,10.93
2019-02-26T02:30:38.762Z,10.90
2019-02-26T02:33:06.932Z,11.48
2019-02-26T02:35:36.560Z,11.35
2019-02-26T02:38:06.242Z,11.05
2019-02-26T02:40:38.027Z,9.85
2019-02-26T02:43:07.957Z,11.85
2019-02-26T02:45:38.822Z,10.03
2019-02-26T02:48:09.706Z,11.48
2019-02-26T02:50:40.138Z,11.03
2019-02-26T02:53:09.839Z,11.80
2019-02-26T02:55:40.423Z,9.43
2019-02-26T02:58:13.062Z,9.78
2019-02-26T03:00:42.412Z,15.13
2019-02-26T03:03:11.979Z,10.80
2019-02-26T03:05:43.826Z,9.50
2019-02-26T03:08:18.384Z,9.48
2019-02-26T03:10:48.143Z,8.50
2019-02-26T03:13:20.028Z,10.28
2019-02-26T03:15:50.257Z,12.15
2019-02-26T03:18:20.521Z,11.15
2019-02-26T03:20:51.430Z,10.18
2019-02-26T03:23:23.076Z,10.35
2019-02-26T03:25:54.896Z,10.30
2019-02-26T03:28:24.472Z,12.88
2019-02-26T03:30:54.177Z,10.13
2019-02-26T03:33:23.924Z,10.03
2019-02-26T03:35:53.658Z,9.53
2019-02-26T03:38:26.210Z,9.35
2019-02-26T03:40:58.031Z,9.18
2019-02-26T03:43:28.571Z,10.45
2019-02-26T03:45:57.552Z,9.40
2019-02-26T03:48:27.236Z,9.48
2019-02-26T03:51:00.663Z,9.88
2019-02-26T03:53:30.526Z,9.68
2019-02-26T03:56:04.311Z,10.03
2019-02-26T03:58:31.197Z,8.25
2019-02-26T04:01:04.554Z,9.08
2019-02-26T04:03:34.670Z,8.98
2019-02-26T04:06:06.695Z,9.70
2019-02-26T04:08:35.188Z,8.80
2019-02-26T04:11:04.891Z,10.75
2019-02-26T04:13:34.584Z,9.63
2019-02-26T04:16:04.667Z,7.50
2019-02-26T04:18:34.930Z,9.10
2019-02-26T04:21:05.935Z,8.30
2019-02-26T04:23:38.842Z,9.18
2019-02-26T04:26:20.840Z,8.98
2019-02-26T04:29:03.485Z,8.25
2019-02-26T04:32:12.128Z,11.08
2019-02-26T04:34:54.627Z,8.90
2019-02-26T04:38:10.295Z,7.15
2019-02-26T04:41:12.608Z,8.55
2019-02-26T04:44:29.235Z,9.90
2019-02-26T04:47:08.774Z,9.13
2019-02-26T04:49:42.538Z,9.50
2019-02-26T04:52:10.937Z,7.60
2019-02-26T04:54:41.331Z,14.45
2019-02-26T04:57:11.484Z,10.75
2019-02-26T04:59:43.879Z,9.35
2019-02-26T05:02:17.676Z,9.25
2019-02-26T05:04:47.595Z,7.50
2019-02-26T05:07:19.391Z,7.00
2019-02-26T05:09:51.142Z,11.53
2019-02-26T05:12:20.417Z,8.85
2019-02-26T05:14:50.430Z,8.88
2019-02-26T05:17:21.863Z,8.53
2019-02-26T05:19:51.897Z,8.13
2019-02-26T05:22:22.863Z,9.08
2019-02-26T05:24:53.161Z,8.18
2019-02-26T05:27:24.965Z,8.93
2019-02-26T05:29:54.816Z,8.40
2019-02-26T05:32:29.422Z,7.67
2019-02-26T05:34:56.803Z,8.15
2019-02-26T05:37:29.256Z,11.10
2019-02-26T05:39:57.976Z,9.60
2019-02-26T05:42:27.652Z,8.33
2019-02-26T05:45:00.758Z,11.60
2019-02-26T05:47:29.035Z,9.85
2019-02-26T05:49:59.614Z,9.98
2019-02-26T05:52:32.934Z,9.70
2019-02-26T05:55:01.861Z,10.55
2019-02-26T05:57:32.775Z,12.40
2019-02-26T06:00:02.525Z,9.13
2019-02-26T06:02:32.243Z,9.08
2019-02-26T06:05:01.943Z,9.33
2019-02-26T06:07:33.951Z,9.93
2019-02-26T06:10:03.106Z,9.78
2019-02-26T06:12:35.337Z,15.18
2019-02-26T06:15:07.742Z,10.80
2019-02-26T06:17:40.698Z,13.00
2019-02-26T06:20:18.873Z,11.50
2019-02-26T06:22:48.625Z,13.35
2019-02-26T06:25:23.644Z,16.85
2019-02-26T06:27:49.707Z,10.82
2019-02-26T06:30:19.403Z,10.13
2019-02-26T06:32:49.111Z,11.33
2019-02-26T06:35:20.173Z,14.65
2019-02-26T06:37:49.785Z,15.68
2019-02-26T06:40:19.512Z,11.68
2019-02-26T06:42:49.099Z,10.15
2019-02-26T06:45:18.824Z,12.40
2019-02-26T06:47:51.313Z,14.20
2019-02-26T06:50:20.357Z,15.20
2019-02-26T06:52:50.831Z,12.55
2019-02-26T06:55:20.649Z,12.63
2019-02-26T06:57:52.841Z,14.53
2019-02-26T07:00:24.580Z,15.80
2019-02-26T07:02:53.526Z,11.35
2019-02-26T07:05:24.535Z,12.78
2019-02-26T07:07:55.095Z,14.10
2019-02-26T07:10:28.238Z,11.75
2019-02-26T07:12:58.367Z,14.00
2019-02-26T07:15:29.306Z,10.28
2019-02-26T07:18:02.205Z,10.43
2019-02-26T07:20:34.042Z,9.03
2019-02-26T07:23:03.918Z,12.47
2019-02-26T07:25:36.240Z,13.38
2019-02-26T07:28:05.012Z,15.10
2019-02-26T07:30:35.343Z,10.88
2019-02-26T07:33:07.581Z,9.13
2019-02-26T07:35:39.218Z,9.68
2019-02-26T07:38:08.874Z,9.35
2019-02-26T07:40:40.488Z,10.43
2019-02-26T07:43:12.744Z,8.60
2019-02-26T07:45:41.375Z,10.50
2019-02-26T07:48:16.219Z,8.18
2019-02-26T07:50:45.365Z,10.55
2019-02-26T07:53:14.517Z,10.28
2019-02-26T07:55:45.437Z,12.05
2019-02-26T07:58:15.990Z,9.60
2019-02-26T08:00:49.585Z,9.13
2019-02-26T08:03:19.458Z,9.50
2019-02-26T08:05:49.529Z,8.65
2019-02-26T08:08:21.014Z,11.48
2019-02-26T08:10:52.963Z,7.95
2019-02-26T08:13:23.960Z,10.95
2019-02-26T08:15:55.140Z,8.70
2019-02-26T08:18:25.005Z,10.00
2019-02-26T08:20:57.292Z,8.25
2019-02-26T08:23:26.360Z,11.85
2019-02-26T08:25:57.799Z,9.00
2019-02-26T08:28:28.175Z,7.92
2019-02-26T08:30:57.913Z,9.25
2019-02-26T08:33:27.679Z,12.30
2019-02-26T08:35:57.514Z,10.75
2019-02-26T08:38:30.072Z,12.13
2019-02-26T08:40:58.602Z,13.13
2019-02-26T08:43:29.140Z,10.43
2019-02-26T08:45:58.922Z,11.60
2019-02-26T08:48:28.524Z,12.55
2019-02-26T08:51:00.797Z,9.28
2019-02-26T08:53:31.531Z,10.65
2019-02-26T08:56:03.772Z,10.75
2019-02-26T08:58:32.508Z,9.00
2019-02-26T09:01:02.202Z,12.70
2019-02-26T09:03:40.304Z,10.13
2019-02-26T09:06:12.777Z,9.88
2019-02-26T09:08:35.627Z,10.40
2019-02-26T09:11:08.067Z,10.95
2019-02-26T09:13:38.901Z,11.73
2019-02-26T09:16:08.872Z,8.95
2019-02-26T09:18:40.534Z,9.80
2019-02-26T09:21:10.708Z,10.48
2019-02-26T09:23:41.387Z,10.23
2019-02-26T09:26:11.229Z,9.08
2019-02-26T09:28:40.906Z,8.80
2019-02-26T09:31:12.324Z,12.00
2019-02-26T09:33:43.560Z,11.97
2019-02-26T09:36:15.740Z,9.23
2019-02-26T09:38:46.748Z,10.38
2019-02-26T09:41:17.171Z,8.90
2019-02-26T09:43:48.146Z,9.40
2019-02-26T09:46:19.059Z,9.15
2019-02-26T09:48:49.046Z,9.18
2019-02-26T09:51:18.915Z,9.65
2019-02-26T09:53:50.048Z,8.05
2019-02-26T09:56:20.039Z,9.48
2019-02-26T09:58:50.832Z,14.73
2019-02-26T10:01:20.710Z,10.98
2019-02-26T10:03:50.362Z,10.50
2019-02-26T10:06:21.640Z,9.65
2019-02-26T10:08:53.308Z,12.23
2019-02-26T10:11:23.568Z,7.70
2019-02-26T10:13:54.328Z,14.53
2019-02-26T10:16:25.796Z,9.78
2019-02-26T10:18:56.766Z,11.95
2019-02-26T10:21:26.489Z,8.25
2019-02-26T10:23:56.853Z,12.28
2019-02-26T10:26:30.509Z,10.23
2019-02-26T10:29:04.445Z,9.03
2019-02-26T10:31:30.512Z,17.05
2019-02-26T10:34:00.215Z,17.17
2019-02-26T10:36:32.496Z,16.32
2019-02-26T10:39:02.783Z,12.03
2019-02-26T10:41:34.869Z,11.80
2019-02-26T10:44:04.075Z,8.10
2019-02-26T10:46:34.600Z,11.43
2019-02-26T10:49:05.273Z,10.30
2019-02-26T10:51:34.865Z,10.70
2019-02-26T10:54:08.245Z,12.13
2019-02-26T10:56:39.315Z,10.80
2019-02-26T10:59:09.387Z,8.00
2019-02-26T11:01:38.640Z,10.53
2019-02-26T11:04:08.407Z,10.03
2019-02-26T11:06:41.157Z,11.70
2019-02-26T11:09:15.576Z,8.58
2019-02-26T11:11:44.175Z,13.15
2019-02-26T11:14:16.678Z,8.63
2019-02-26T11:16:45.522Z,9.28
2019-02-26T11:19:15.296Z,14.10
2019-02-26T11:21:44.991Z,14.65
2019-02-26T11:24:14.543Z,10.43
2019-02-26T11:26:44.128Z,9.35
2019-02-26T11:29:13.934Z,17.15
2019-02-26T11:31:44.792Z,16.80
2019-02-26T11:34:15.088Z,18.00
2019-02-26T11:36:44.803Z,17.20
2019-02-26T11:39:16.465Z,19.73
2019-02-26T11:41:48.154Z,19.90
2019-02-26T11:44:21.600Z,21.05
2019-02-26T11:46:51.292Z,21.93
2019-02-26T11:49:21.823Z,23.75
2019-02-26T11:51:51.802Z,25.30
2019-02-26T11:54:21.420Z,28.30
2019-02-26T11:56:52.503Z,28.20
2019-02-26T11:59:22.464Z,27.27
2019-02-26T12:01:54.023Z,24.65
2019-02-26T12:04:23.620Z,23.15
2019-02-26T12:06:53.512Z,27.55
2019-02-26T12:09:23.254Z,25.27
2019-02-26T12:11:53.037Z,29.60
2019-02-26T12:14:22.679Z,28.00
2019-02-26T12:16:52.354Z,25.45
2019-02-26T12:19:23.111Z,32.85
2019-02-26T12:21:55.130Z,35.35
2019-02-26T12:24:26.664Z,38.60
2019-02-26T12:26:56.321Z,38.38
2019-02-26T12:29:28.331Z,42.08
2019-02-26T12:31:58.338Z,40.43
2019-02-26T12:34:30.059Z,43.28
2019-02-26T12:37:02.805Z,39.65
2019-02-26T12:39:31.510Z,44.15
2019-02-26T12:42:01.170Z,36.77
2019-02-26T12:44:31.897Z,37.45
2019-02-26T12:47:02.229Z,36.48
2019-02-26T12:49:35.022Z,35.75
2019-02-26T12:52:03.644Z,38.17
2019-02-26T12:54:37.021Z,47.40
2019-02-26T12:57:04.731Z,36.83
2019-02-26T12:59:34.470Z,37.90
2019-02-26T13:02:05.574Z,36.15
2019-02-26T13:04:37.722Z,35.17
2019-02-26T13:07:09.293Z,34.92
2019-02-26T13:09:46.621Z,32.70
2019-02-26T13:12:12.473Z,33.05
2019-02-26T13:14:41.945Z,32.83
2019-02-26T13:17:13.982Z,33.67
2019-02-26T13:19:42.989Z,33.38
2019-02-26T13:22:17.299Z,36.40
2019-02-26T13:24:44.151Z,34.35
2019-02-26T13:27:13.999Z,37.83
2019-02-26T13:29:53.606Z,32.10
2019-02-26T13:32:17.537Z,31.15
2019-02-26T13:34:46.785Z,29.32
2019-02-26T13:37:16.409Z,32.25
2019-02-26T13:39:46.091Z,31.17
2019-02-26T13:42:19.283Z,28.30
2019-02-26T13:44:47.586Z,30.35
2019-02-26T13:47:17.278Z,29.12
2019-02-26T13:49:47.099Z,31.02
2019-02-26T13:52:16.728Z,28.40
2019-02-26T13:54:46.518Z,28.10
2019-02-26T13:57:16.775Z,26.70
2019-02-26T13:59:46.447Z,31.62
2019-02-26T14:02:17.036Z,27.62
2019-02-26T14:04:46.919Z,26.73
2019-02-26T14:07:16.522Z,28.17
2019-02-26T14:09:46.649Z,26.37
2019-02-26T14:12:16.508Z,27.77
2019-02-26T14:14:46.270Z,27.73
2019-02-26T14:17:15.927Z,29.70
2019-02-26T14:19:45.900Z,25.68
2019-02-26T14:22:15.507Z,29.35
2019-02-26T14:24:45.195Z,26.65
2019-02-26T14:27:14.819Z,26.77
2019-02-26T14:29:44.617Z,25.40
2019-02-26T14:32:14.599Z,26.17
2019-02-26T14:34:44.632Z,24.65
2019-02-26T14:37:14.278Z,25.90
2019-02-26T14:39:43.971Z,24.98
2019-02-26T14:42:13.727Z,25.75
2019-02-26T14:44:43.588Z,22.37
2019-02-26T14:47:13.240Z,26.48
2019-02-26T14:49:42.924Z,24.90
2019-02-26T14:52:12.568Z,24.82
2019-02-26T14:54:42.383Z,23.83
2019-02-26T14:57:12.300Z,25.45
2019-02-26T14:59:42.006Z,23.75
2019-02-26T15:02:11.669Z,20.90
2019-02-26T15:04:41.382Z,23.87
2019-02-26T15:07:11.261Z,23.50
2019-02-26T15:09:41.011Z,23.30
2019-02-26T15:12:10.721Z,25.95
2019-02-26T15:14:40.515Z,23.38
2019-02-26T15:17:10.258Z,22.75
2019-02-26T15:19:49.365Z,21.45
2019-02-26T15:22:11.894Z,20.10
2019-02-26T15:24:41.735Z,21.85
2019-02-26T15:27:11.446Z,23.65
2019-02-26T15:29:41.162Z,22.52
2019-02-26T15:32:10.838Z,24.00
2019-02-26T15:34:40.785Z,22.55
2019-02-26T15:37:10.415Z,20.12
2019-02-26T15:39:40.108Z,20.23
2019-02-26T15:42:09.939Z,20.43
2019-02-26T15:44:39.639Z,19.57
2019-02-26T15:47:09.344Z,20.20
2019-02-26T15:49:39.110Z,19.32
2019-02-26T15:52:08.758Z,19.27
2019-02-26T15:54:38.546Z,20.02
2019-02-26T15:57:08.407Z,19.40
2019-02-26T15:59:38.047Z,20.52
2019-02-26T16:02:07.910Z,20.85
2019-02-26T16:04:37.640Z,19.50
2019-02-26T16:07:07.326Z,20.45
2019-02-26T16:09:36.974Z,18.70
2019-02-26T16:12:06.354Z,17.42
2019-02-26T16:14:36.179Z,20.35
2019-02-26T16:17:06.108Z,20.77
2019-02-26T16:19:35.784Z,18.37
2019-02-26T16:22:05.426Z,17.23
2019-02-26T16:24:35.098Z,19.50
2019-02-26T16:27:04.833Z,17.98
2019-02-26T16:29:34.841Z,19.48
2019-02-26T16:32:04.991Z,18.12
2019-02-26T16:34:35.234Z,29.82
2019-02-26T16:37:07.225Z,18.67
2019-02-26T16:39:36.260Z,17.62
2019-02-26T16:42:05.986Z,19.00
2019-02-26T16:44:35.657Z,16.70
2019-02-26T16:47:05.394Z,17.80
2019-02-26T16:49:35.073Z,17.35
2019-02-26T16:52:04.745Z,19.23
2019-02-26T16:54:34.422Z,18.52
2019-02-26T16:57:04.099Z,16.37
2019-02-26T16:59:33.921Z,21.27
2019-02-26T17:02:03.628Z,17.77
2019-02-26T17:04:33.568Z,16.45
2019-02-26T17:07:03.223Z,17.45
2019-02-26T17:09:32.964Z,18.27
2019-02-26T17:12:02.637Z,14.83
2019-02-26T17:14:32.398Z,18.32
2019-02-26T17:17:03.938Z,17.62
2019-02-26T17:19:33.758Z,18.12
2019-02-26T17:22:04.506Z,16.82
2019-02-26T17:24:34.919Z,17.40
2019-02-26T17:27:05.711Z,19.00
2019-02-26T17:29:36.183Z,17.57
2019-02-26T17:32:05.874Z,16.15
2019-02-26T17:34:35.610Z,14.18
2019-02-26T17:37:06.528Z,16.52
2019-02-26T17:39:36.668Z,18.42
2019-02-26T17:42:06.347Z,16.17
2019-02-26T17:44:36.088Z,17.20
2019-02-26T17:47:05.815Z,14.75
2019-02-26T17:49:36.270Z,17.57
2019-02-26T17:52:06.629Z,23.38
2019-02-26T17:54:36.899Z,15.20
2019-02-26T17:57:07.039Z,16.77
2019-02-26T17:59:36.813Z,16.87
2019-02-26T18:02:06.638Z,17.32
2019-02-26T18:04:36.359Z,21.90
2019-02-26T18:07:05.978Z,17.45
2019-02-26T18:09:35.673Z,20.82
2019-02-26T18:12:05.681Z,15.03
2019-02-26T18:14:38.511Z,24.87
2019-02-26T18:17:07.254Z,18.48
2019-02-26T18:19:36.988Z,15.90
2019-02-26T18:22:06.588Z,20.20
2019-02-26T18:24:36.286Z,16.67
2019-02-26T18:27:05.915Z,19.05
2019-02-26T18:29:35.611Z,17.90
2019-02-26T18:32:05.216Z,15.78
2019-02-26T18:34:34.929Z,14.53
2019-02-26T18:37:06.043Z,15.00
2019-02-26T18:39:36.479Z,13.78
2019-02-26T18:42:08.373Z,20.92
2019-02-26T18:44:48.859Z,17.77
2019-02-26T18:47:20.573Z,12.75
2019-02-26T18:49:52.821Z,16.12
2019-02-26T18:52:24.031Z,17.32
2019-02-26T18:54:55.041Z,14.90
2019-02-26T18:57:26.612Z,14.00
2019-02-26T18:59:58.135Z,18.45
2019-02-26T19:02:28.312Z,15.93
2019-02-26T19:05:00.108Z,16.20
2019-02-26T19:07:33.873Z,16.70
2019-02-26T19:10:02.606Z,15.55
2019-02-26T19:12:32.288Z,18.87
2019-02-26T19:15:01.725Z,17.60
2019-02-26T19:17:31.520Z,14.33
2019-02-26T19:20:01.439Z,15.70
2019-02-26T19:22:31.197Z,15.60
2019-02-26T19:25:06.801Z,16.17
2019-02-26T19:27:36.233Z,19.23
2019-02-26T19:30:06.916Z,15.93
2019-02-26T19:32:36.753Z,14.90
2019-02-26T19:35:12.235Z,15.53
2019-02-26T19:37:37.962Z,16.60
2019-02-26T19:40:09.503Z,16.65
2019-02-26T19:42:38.956Z,14.18
2019-02-26T19:45:11.723Z,19.30
2019-02-26T19:47:41.416Z,16.05
2019-02-26T19:50:11.933Z,15.00
2019-02-26T19:52:42.142Z,16.73
2019-02-26T19:55:15.665Z,16.62
2019-02-26T19:57:45.894Z,18.25
2019-02-26T20:00:19.632Z,18.37
2019-02-26T20:02:46.950Z,16.75
2019-02-26T20:05:16.410Z,15.90
2019-02-26T20:07:46.203Z,16.57
2019-02-26T20:10:16.430Z,17.77
2019-02-26T20:12:46.228Z,14.75
2019-02-26T20:15:15.948Z,16.32
2019-02-26T20:17:48.904Z,17.87
2019-02-26T20:20:17.308Z,16.17
2019-02-26T20:22:47.069Z,15.35
2019-02-26T20:25:17.381Z,15.00
2019-02-26T20:27:47.176Z,17.62
2019-02-26T20:30:18.232Z,13.80
2019-02-26T20:32:48.122Z,17.80
2019-02-26T20:35:17.767Z,16.52
2019-02-26T20:37:47.528Z,18.48
2019-02-26T20:40:18.253Z,16.70
2019-02-26T20:42:47.860Z,17.27
2019-02-26T20:45:18.872Z,18.77
2019-02-26T20:47:48.697Z,12.73
2019-02-26T20:50:21.075Z,16.00
2019-02-26T20:52:49.884Z,13.90
2019-02-26T20:55:20.330Z,14.65
2019-02-26T20:57:50.116Z,14.30
2019-02-26T21:00:20.020Z,15.83
2019-02-26T21:02:49.640Z,17.00
2019-02-26T21:05:19.466Z,21.00
2019-02-26T21:07:49.777Z,14.40
2019-02-26T21:10:19.468Z,17.80
2019-02-26T21:12:49.153Z,21.93
2019-02-26T21:15:19.317Z,12.85
2019-02-26T21:17:49.016Z,14.63
2019-02-26T21:20:18.669Z,16.45
2019-02-26T21:22:48.574Z,14.55
2019-02-26T21:25:18.343Z,15.95
2019-02-26T21:27:48.547Z,17.92
2019-02-26T21:30:18.990Z,12.60
2019-02-26T21:32:49.000Z,13.32
2019-02-26T21:35:20.504Z,16.82
2019-02-26T21:37:52.405Z,13.60
2019-02-26T21:40:26.168Z,15.25
2019-02-26T21:43:01.570Z,15.30
2019-02-26T21:45:31.485Z,15.43
2019-02-26T21:48:02.748Z,15.53
2019-02-26T21:50:32.653Z,14.13
2019-02-26T21:53:02.360Z,14.68
2019-02-26T21:55:40.543Z,14.53
2019-02-26T21:58:03.549Z,15.32
2019-02-26T22:00:33.130Z,15.20
2019-02-26T22:03:02.949Z,14.20
2019-02-26T22:05:32.555Z,12.23
2019-02-26T22:08:02.303Z,19.02
2019-02-26T22:10:31.962Z,14.68
2019-02-26T22:13:01.615Z,15.48
2019-02-26T22:15:31.417Z,12.65
2019-02-26T22:18:01.017Z,12.85
2019-02-26T22:20:36.105Z,14.30
2019-02-26T22:23:02.087Z,15.05
2019-02-26T22:25:31.787Z,13.08
2019-02-26T22:28:01.407Z,15.18
2019-02-26T22:30:31.086Z,12.47
2019-02-26T22:33:00.799Z,12.13
2019-02-26T22:35:30.429Z,13.53
2019-02-26T22:38:00.151Z,13.88
2019-02-26T22:40:29.743Z,10.48
2019-02-26T22:42:59.436Z,12.15
2019-02-26T22:45:29.075Z,11.55
2019-02-26T22:47:58.761Z,12.88
2019-02-26T22:50:28.571Z,11.70
2019-02-26T22:52:58.288Z,12.25
2019-02-26T22:55:27.985Z,11.80
2019-02-26T22:57:57.636Z,11.35
2019-02-26T23:00:59.676Z,13.72
2019-02-26T23:03:29.366Z,12.95
2019-02-26T23:05:59.657Z,10.28
2019-02-26T23:08:29.324Z,12.10
2019-02-26T23:10:59.219Z,14.05
2019-02-26T23:13:31.810Z,10.63
2019-02-26T23:16:00.304Z,11.43
2019-02-26T23:18:30.954Z,11.00
2019-02-26T23:21:01.479Z,13.80
2019-02-26T23:23:31.056Z,11.00
2019-02-26T23:26:00.801Z,10.80
2019-02-26T23:28:30.404Z,11.60
2019-02-26T23:31:00.417Z,10.75
2019-02-26T23:33:30.210Z,11.48
2019-02-26T23:35:59.912Z,12.65
2019-02-26T23:38:29.559Z,10.30
2019-02-26T23:41:00.315Z,11.03
2019-02-26T23:43:30.489Z,10.72
2019-02-26T23:46:00.126Z,13.80
2019-02-26T23:48:29.901Z,12.25
2019-02-26T23:50:59.622Z,11.85
2019-02-26T23:53:29.243Z,11.53
2019-02-26T23:55:58.952Z,11.28
2019-02-26T23:58:30.715Z,10.43
